Main page
METAR-TAF:

METAR-TAF

Airports :

Samos International Airport

Samos, Greece

latitude: 37-42N, longitude: 026-55E, elevation: 2 m

Current weather observation

The report was made 31 minutes ago, at 05:50 UTC
Wind 10 kt from the Southeast
Temperature 15°C
Humidity 72%
Pressure 1022 hPa
Visibility 10 km or more
Scattered clouds at a height of 2500 ft

METAR: LGSM 060550Z 14010KT 9999 SCT025 15/10 Q1022

Time: 08:21 (06:21 UTC)

Forecast

The report was made 1 hour and 21 minutes ago, at 05:00 UTC
Forecast valid from 06 at 06 UTC to 06 at 15 UTC
Wind 12 kt from the South
Visibility 10 km or more
Scattered clouds at a height of 2000 ft
Probability 30% :
Temporary
from 06 at 06 UTC to 06 at 09 UTC
Visibility: 5000 m
Scattered clouds at a height of 1500 ft
rain

TAF: LGSM 060500Z 0606/0615 19012KT 9999 SCT020 PROB30 TEMPO 0606/0609 5000 RA SCT015

Weather observations and forecasts of more than 4000 airports (METAR and TAF reports).

The available stations are represented by yellow and red dots on the map.

Hover mouse over dot to see the name of the station.

Then click to see weather observations and forecasts.

To change the map : click on the green buttons with a black cross to zoom in, on the green button with a dash to zoom out, or on the green arrows for adjacent maps.


METAR-TAF: